Air Resources Laboratory banner image
Air Resources Laboratory web site National Oceanic and Atmospheric Administration (NOAA)

ar metar


KARG 181256Z AUTO 02007KT 10SM CLR 08/04 A3051 RMK AO2 SLP335 T00780039=
KARG 181316Z AUTO 03007KT 1 3/4SM HZ CLR 09/04 A3052 RMK AO2 VIS 1V5=
KASG 181248Z 07006KT 10SM CLR 10/06 A3049=
KBPK 181253Z AUTO 00000KT 10SM CLR 08/06 A3050 RMK AO2 SLP327 T00830056=
KBVX 181256Z AUTO 04004KT 10SM CLR 09/04 A3051 RMK AO2 SLP334 T00890044=
KBYH 181256Z 02005KT 10SM SCT150 BKN250 08/05 A3049 =
KCDH 181255Z AUTO 00000KT 9SM 12/09 A3042 RMK AO2=
KDEQ 181253Z AUTO 06005KT 10SM CLR 13/09 A3041 RMK AO2 SLP295 T01280089=
KELD 181253Z AUTO 02004KT 10SM CLR 12/09 A3041 RMK AO2 SLP296 T01170094=
KFLP 181256Z AUTO 00000KT 10SM CLR 09/06 A3052 RMK AO2 SLP335 T00890061=
KFSM 181253Z 00000KT 10SM CLR 12/11 A3047 RMK AO2 SLP317 T01220106=
KFYV 181253Z 00000KT 10SM CLR 09/07 A3048 RMK AO2 SLP319 T00940067=
KHKA 181253Z AUTO 10SM CLR 08/04 A3049 RMK AO2 SLP324 T00830044 $=
KHOT 181253Z AUTO 06009KT 10SM CLR 13/07 A3044 RMK AO2 SLP307 T01330067=
KHRO 181253Z AUTO 00000KT 10SM CLR 08/06 A3050 RMK AO2 SLP328 T00780061=
KJBR 181253Z AUTO 03006KT 10SM CLR 09/05 A3050 RMK AO2 SLP328 T00940050=
KLIT 181253Z 04009KT 10SM BKN150 12/07 A3047 RMK AO2 SLP319 T01220072=
KLLQ 181253Z AUTO 05007KT 10SM CLR 12/09 A3041 RMK AO2 SLP298 T01220089=
KLRF 181256Z AUTO 05004KT 10SM OVC130 12/07 A3047 RMK AO2 SLP321 T01170068 $=
KPBF 181253Z AUTO 04009KT 10SM BKN110 12/07 A3044 RMK AO2 SLP306 T01220067=
KROG 181258Z 09006KT 10SM CLR 10/04 A3049 RMK AO2 SLP326 T01000044 PNO $=
KRUE 181253Z AUTO 08004KT 10SM CLR 12/06 A3047 RMK AO2 SLP315 T01170061=
KSGT 181256Z AUTO 03009KT 10SM CLR 12/08 A3046 RMK AO2 SLP315 T01220078=
KSLG 181256Z AUTO VRB03KT 10SM CLR 10/06 A3048 RMK AO2 SLP321 T01000061=
KSRC 181256Z AUTO 03005KT 10SM CLR 10/06 A3049 RMK AO2 SLP336 T01000061=
KTXK 181253Z 06006KT 10SM OVC080 12/09 A3041 RMK AO2 SLP294 T01220089=
KVBT 181256Z AUTO 07005KT 10SM CLR 10/05 A3050 RMK AO2 SLP331 T01000050=
KXNA 181253Z 05003KT 10SM CLR 11/05 A3049 RMK AO2 SLP322 T01060050=